createdAt,value
2022-09-02T00:00:54.398Z,99225.22
2022-09-02T00:03:22.203Z,99231.13
2022-09-02T00:05:49.635Z,99223.53
2022-09-02T00:08:16.781Z,99220.19
2022-09-02T00:10:44.262Z,99209.34
2022-09-02T00:13:12.756Z,99213.59
2022-09-02T00:15:41.114Z,99211.72
2022-09-02T00:18:08.873Z,99209.78
2022-09-02T00:20:43.477Z,99206.44
2022-09-02T00:23:11.537Z,99207.72
2022-09-02T00:25:39.061Z,99205.94
2022-09-02T00:28:06.695Z,99203.16
2022-09-02T00:30:34.321Z,99202.84
2022-09-02T00:33:01.485Z,99206.47
2022-09-02T00:35:28.665Z,99204.97
2022-09-02T00:37:56.275Z,99202.22
2022-09-02T00:40:23.550Z,99195.44
2022-09-02T00:42:51.441Z,99194.75
2022-09-02T00:45:20.201Z,99194.47
2022-09-02T00:47:47.841Z,99197.31
2022-09-02T00:50:15.711Z,99198.44
2022-09-02T00:52:44.005Z,99192.91
2022-09-02T00:55:12.050Z,99192.22
2022-09-02T00:57:44.196Z,99184.53
2022-09-02T01:00:13.359Z,99190.38
2022-09-02T01:02:41.359Z,99190.25
2022-09-02T01:05:11.060Z,99190.50
2022-09-02T01:07:38.983Z,99186.88
2022-09-02T01:10:07.570Z,99184.13
2022-09-02T01:12:35.776Z,99189.50
2022-09-02T01:15:04.132Z,99179.97
2022-09-02T01:17:34.197Z,99180.91
2022-09-02T01:20:12.175Z,99187.09
2022-09-02T01:22:42.406Z,99188.06
2022-09-02T01:25:11.503Z,99188.41
2022-09-02T01:27:38.770Z,99187.56
2022-09-02T01:30:07.157Z,99190.31
2022-09-02T01:32:35.159Z,99184.13
2022-09-02T01:35:02.343Z,99183.59
2022-09-02T01:37:32.268Z,99186.31
2022-09-02T01:39:59.778Z,99187.69
2022-09-02T01:42:27.511Z,99186.78
2022-09-02T01:44:54.973Z,99182.28
2022-09-02T01:47:23.763Z,99181.66
2022-09-02T01:49:51.342Z,99176.47
2022-09-02T01:52:20.544Z,99176.69
2022-09-02T01:54:48.356Z,99178.94
2022-09-02T01:57:15.671Z,99177.22
2022-09-02T01:59:48.202Z,99172.16
2022-09-02T02:02:16.063Z,99172.47
2022-09-02T02:04:46.102Z,99167.22
2022-09-02T02:07:14.423Z,99169.50
2022-09-02T02:09:42.453Z,99169.03
2022-09-02T02:12:13.785Z,99167.94
2022-09-02T02:14:40.990Z,99172.09
2022-09-02T02:17:08.461Z,99172.38
2022-09-02T02:19:35.727Z,99165.75
2022-09-02T02:22:04.089Z,99165.31
2022-09-02T02:24:33.534Z,99162.69
2022-09-02T02:27:01.672Z,99161.50
2022-09-02T02:29:29.901Z,99161.56
2022-09-02T02:31:57.566Z,99161.56
2022-09-02T02:34:24.818Z,99172.09
2022-09-02T02:36:52.056Z,99169.28
2022-09-02T02:39:21.435Z,99174.47
2022-09-02T02:41:48.620Z,99164.63
2022-09-02T02:44:16.084Z,99163.47
2022-09-02T02:46:43.815Z,99163.47
2022-09-02T02:49:11.743Z,99163.72
2022-09-02T02:51:39.001Z,99161.97
2022-09-02T02:54:06.668Z,99167.75
2022-09-02T02:56:35.398Z,99165.38
2022-09-02T02:59:03.675Z,99168.72
2022-09-02T03:01:31.911Z,99160.00
2022-09-02T03:04:05.525Z,99151.62
2022-09-02T03:06:33.089Z,99157.69
2022-09-02T03:09:01.172Z,99158.28
2022-09-02T03:11:28.645Z,99158.34
2022-09-02T03:13:56.338Z,99156.88
2022-09-02T03:16:23.580Z,99158.62
2022-09-02T03:18:51.038Z,99155.34
2022-09-02T03:21:18.666Z,99142.09
2022-09-02T03:23:46.194Z,99148.69
2022-09-02T03:26:15.615Z,99152.16
2022-09-02T03:28:47.601Z,99150.97
2022-09-02T03:31:16.854Z,99150.59
2022-09-02T03:33:44.137Z,99151.53
2022-09-02T03:36:28.307Z,99154.16
2022-09-02T03:38:56.091Z,99153.88
2022-09-02T03:41:23.857Z,99152.53
2022-09-02T03:43:52.307Z,99157.41
2022-09-02T03:46:20.833Z,99152.94
2022-09-02T03:48:51.904Z,99148.84
2022-09-02T03:51:20.005Z,99150.06
2022-09-02T03:53:47.977Z,99153.50
2022-09-02T03:56:15.927Z,99157.78
2022-09-02T03:58:44.028Z,99158.75
2022-09-02T04:01:15.661Z,99141.94
2022-09-02T04:03:43.819Z,99147.75
2022-09-02T04:06:12.781Z,99149.94
2022-09-02T04:08:41.608Z,99161.28
2022-09-02T04:11:09.666Z,99160.78
2022-09-02T04:13:37.160Z,99155.19
2022-09-02T04:16:10.610Z,99159.03
2022-09-02T04:18:38.264Z,99154.97
2022-09-02T04:21:05.708Z,99161.09
2022-09-02T04:23:34.761Z,99159.75
2022-09-02T04:26:20.914Z,99164.81
2022-09-02T04:28:50.297Z,99158.78
2022-09-02T04:31:19.008Z,99164.06
2022-09-02T04:33:47.277Z,99163.88
2022-09-02T04:36:15.511Z,99171.94
2022-09-02T04:38:43.419Z,99162.03
2022-09-02T04:41:15.271Z,99166.09
2022-09-02T04:43:42.915Z,99170.78
2022-09-02T04:46:11.454Z,99170.59
2022-09-02T04:48:41.269Z,99172.31
2022-09-02T04:51:13.929Z,99175.88
2022-09-02T04:53:41.637Z,99179.53
2022-09-02T04:56:09.702Z,99172.06
2022-09-02T04:58:37.150Z,99173.97
2022-09-02T05:01:14.221Z,99177.56
2022-09-02T05:03:43.185Z,99171.56
2022-09-02T05:06:12.230Z,99173.69
2022-09-02T05:08:41.481Z,99176.50
2022-09-02T05:11:13.926Z,99180.69
2022-09-02T05:13:42.413Z,99179.41
2022-09-02T05:16:10.312Z,99180.59
2022-09-02T05:18:39.026Z,99173.50
2022-09-02T05:21:07.017Z,99172.25
2022-09-02T05:23:34.801Z,99169.38
2022-09-02T05:26:08.879Z,99183.09
2022-09-02T05:28:36.758Z,99181.81
2022-09-02T05:31:05.663Z,99176.63
2022-09-02T05:33:38.632Z,99179.31
2022-09-02T05:36:07.037Z,99182.16
2022-09-02T05:38:34.420Z,99176.88
2022-09-02T05:41:08.074Z,99182.94
2022-09-02T05:43:39.339Z,99187.19
2022-09-02T05:46:08.120Z,99175.59
2022-09-02T05:48:54.965Z,99182.16
2022-09-02T05:51:22.432Z,99177.13
2022-09-02T05:53:53.946Z,99178.13
2022-09-02T05:56:21.793Z,99184.75
2022-09-02T05:58:49.544Z,99184.09
2022-09-02T06:01:18.499Z,99178.97
2022-09-02T06:03:47.254Z,99184.91
2022-09-02T06:06:14.469Z,99193.59
2022-09-02T06:08:41.878Z,99185.66
2022-09-02T06:11:09.818Z,99188.22
2022-09-02T06:13:38.164Z,99189.03
2022-09-02T06:16:06.374Z,99189.00
2022-09-02T06:18:34.669Z,99191.06
2022-09-02T06:21:03.015Z,99187.94
2022-09-02T06:23:30.937Z,99181.66
2022-09-02T06:25:59.364Z,99190.94
2022-09-02T06:28:26.619Z,99189.81
2022-09-02T06:30:54.280Z,99190.28
2022-09-02T06:33:22.027Z,99187.41
2022-09-02T06:35:49.502Z,99198.00
2022-09-02T06:38:17.351Z,99186.69
2022-09-02T06:40:49.184Z,99197.47
2022-09-02T06:43:18.570Z,99205.50
2022-09-02T06:45:48.004Z,99190.56
2022-09-02T06:48:15.299Z,99194.53
2022-09-02T06:50:43.470Z,99195.66
2022-09-02T06:53:11.813Z,99198.50
2022-09-02T06:55:40.083Z,99191.63
2022-09-02T06:58:07.472Z,99200.22
2022-09-02T07:00:36.971Z,99202.56
2022-09-02T07:03:23.745Z,99188.31
2022-09-02T07:06:10.916Z,99188.97
2022-09-02T07:08:41.358Z,99190.47
2022-09-02T07:11:15.746Z,99186.37
2022-09-02T07:13:43.586Z,99183.16
2022-09-02T07:16:11.409Z,99190.03
2022-09-02T07:18:45.152Z,99189.28
2022-09-02T07:21:13.671Z,99182.41
2022-09-02T07:23:41.302Z,99182.72
2022-09-02T07:26:12.833Z,99182.72
2022-09-02T07:28:42.363Z,99189.06
2022-09-02T07:31:10.103Z,99195.84
2022-09-02T07:33:37.511Z,99188.66
2022-09-02T07:36:06.181Z,99184.16
2022-09-02T07:38:38.693Z,99199.22
2022-09-02T07:41:06.427Z,99190.56
2022-09-02T07:43:34.029Z,99194.13
2022-09-02T07:46:01.782Z,99198.81
2022-09-02T07:48:29.885Z,99189.78
2022-09-02T07:50:57.675Z,99183.66
2022-09-02T07:53:25.417Z,99190.88
2022-09-02T07:55:52.911Z,99186.31
2022-09-02T07:58:20.782Z,99182.94
2022-09-02T08:00:49.647Z,99189.88
2022-09-02T08:03:17.336Z,99185.94
2022-09-02T08:05:47.094Z,99185.00
2022-09-02T08:08:15.901Z,99182.25
2022-09-02T08:10:43.323Z,99191.69
2022-09-02T08:13:11.103Z,99193.31
2022-09-02T08:15:38.997Z,99199.72
2022-09-02T08:18:06.823Z,99199.56
2022-09-02T08:20:34.979Z,99193.47
2022-09-02T08:23:10.883Z,99190.94
2022-09-02T08:25:40.898Z,99188.03
2022-09-02T08:28:08.139Z,99185.00
2022-09-02T08:30:35.446Z,99187.34
2022-09-02T08:33:02.862Z,99188.28
2022-09-02T08:35:30.062Z,99190.53
2022-09-02T08:37:59.112Z,99185.56
2022-09-02T08:40:29.730Z,99187.72
2022-09-02T08:42:56.958Z,99181.81
2022-09-02T08:45:27.328Z,99180.03
2022-09-02T08:48:15.675Z,99184.13
2022-09-02T08:50:43.486Z,99178.53
2022-09-02T08:53:11.063Z,99183.16
2022-09-02T08:55:49.194Z,99186.16
2022-09-02T08:58:20.650Z,99179.19
2022-09-02T09:00:50.614Z,99183.00
2022-09-02T09:03:25.521Z,99186.00
2022-09-02T09:06:08.022Z,99182.25
2022-09-02T09:09:07.825Z,99180.84
2022-09-02T09:11:53.653Z,99176.53
2022-09-02T09:14:23.707Z,99168.03
2022-09-02T09:16:58.824Z,99176.13
2022-09-02T09:19:26.235Z,99174.22
2022-09-02T09:21:53.469Z,99168.25
2022-09-02T09:24:28.456Z,99164.75
2022-09-02T09:26:55.864Z,99172.72
2022-09-02T09:29:22.992Z,99173.47
2022-09-02T09:31:57.203Z,99172.09
2022-09-02T09:34:24.740Z,99171.28
2022-09-02T09:36:53.793Z,99180.06
2022-09-02T09:39:20.937Z,99166.38
2022-09-02T09:41:48.780Z,99160.16
2022-09-02T09:44:36.905Z,99167.44
2022-09-02T09:47:16.021Z,99164.44
2022-09-02T09:49:52.556Z,99161.75
2022-09-02T09:52:29.781Z,99150.69
2022-09-02T09:55:13.851Z,99154.59
2022-09-02T09:57:41.928Z,99159.66
2022-09-02T10:00:25.934Z,99151.41
2022-09-02T10:02:55.191Z,99152.66
2022-09-02T10:05:25.398Z,99140.37
2022-09-02T10:08:00.363Z,99149.97
2022-09-02T10:10:29.041Z,99150.69
2022-09-02T10:12:58.605Z,99151.66
2022-09-02T10:15:35.085Z,99156.38
2022-09-02T10:18:03.998Z,99148.34
2022-09-02T10:20:48.501Z,99153.09
2022-09-02T10:23:28.538Z,99155.28
2022-09-02T10:26:00.161Z,99153.59
2022-09-02T10:28:41.068Z,99156.06
2022-09-02T10:31:19.691Z,99155.03
2022-09-02T10:33:50.401Z,99161.25
2022-09-02T10:36:25.511Z,99158.75
2022-09-02T10:38:52.993Z,99151.81
2022-09-02T10:41:20.589Z,99166.69
2022-09-02T10:43:47.691Z,99157.16
2022-09-02T10:46:17.406Z,99157.13
2022-09-02T10:49:01.452Z,99147.66
2022-09-02T10:51:37.203Z,99151.09
2022-09-02T10:54:05.033Z,99159.19
2022-09-02T10:56:34.982Z,99153.31
2022-09-02T10:59:10.504Z,99150.16
2022-09-02T11:01:41.785Z,99152.59
2022-09-02T11:04:21.080Z,99148.47
2022-09-02T11:07:02.630Z,99153.03
2022-09-02T11:09:37.980Z,99155.69
2022-09-02T11:12:21.689Z,99152.34
2022-09-02T11:14:51.796Z,99146.72
2022-09-02T11:17:24.393Z,99148.47
2022-09-02T11:20:10.355Z,99148.91
2022-09-02T11:22:49.441Z,99142.38
2022-09-02T11:25:25.631Z,99144.19
2022-09-02T11:27:52.984Z,99134.03
2022-09-02T11:30:21.469Z,99147.94
2022-09-02T11:33:07.716Z,99132.31
2022-09-02T11:35:37.917Z,99126.38
2022-09-02T11:38:08.138Z,99126.69
2022-09-02T11:40:38.766Z,99138.53
2022-09-02T11:43:22.244Z,99126.38
2022-09-02T11:45:57.182Z,99118.47
2022-09-02T11:48:29.404Z,99117.31
2022-09-02T11:50:56.813Z,99113.31
2022-09-02T11:53:55.985Z,99114.03
2022-09-02T11:56:25.362Z,99107.06
2022-09-02T11:58:53.073Z,99116.94
2022-09-02T12:01:25.818Z,99110.47
2022-09-02T12:04:34.393Z,99100.97
2022-09-02T12:07:02.330Z,99116.66
2022-09-02T12:12:31.816Z,99113.19
2022-09-02T12:14:59.185Z,99109.13
2022-09-02T12:17:38.022Z,99105.25
2022-09-02T12:20:08.088Z,99110.66
2022-09-02T12:22:38.842Z,99115.88
2022-09-02T12:25:24.684Z,99108.03
2022-09-02T12:28:24.282Z,99100.53
2022-09-02T12:31:03.108Z,99101.53
2022-09-02T12:33:30.226Z,99104.06
2022-09-02T12:35:58.425Z,99095.09
2022-09-02T12:38:36.185Z,99094.78
2022-09-02T12:41:04.230Z,99096.47
2022-09-02T12:43:37.575Z,99098.97
2022-09-02T12:46:24.046Z,99088.47
2022-09-02T12:48:59.079Z,99086.34
2022-09-02T12:52:04.931Z,99081.50
2022-09-02T12:54:47.854Z,99084.44
2022-09-02T12:57:16.951Z,99086.25
2022-09-02T12:59:44.996Z,99083.81
2022-09-02T13:02:30.747Z,99079.66
2022-09-02T13:05:17.558Z,99081.41
2022-09-02T13:07:54.361Z,99074.09
2022-09-02T13:10:26.418Z,99079.37
2022-09-02T13:12:56.375Z,99072.16
2022-09-02T13:15:23.845Z,99080.88
2022-09-02T13:17:57.138Z,99077.28
2022-09-02T13:20:32.651Z,99075.19
2022-09-02T13:23:19.536Z,99075.34
2022-09-02T13:26:13.129Z,99069.19
2022-09-02T13:28:55.580Z,99070.28
2022-09-02T13:31:24.751Z,99075.38
2022-09-02T13:33:59.478Z,99077.59
2022-09-02T13:36:28.009Z,99070.06
2022-09-02T13:38:55.525Z,99072.72
2022-09-02T13:41:29.661Z,99069.31
2022-09-02T13:44:07.431Z,99068.81
2022-09-02T13:46:34.707Z,99055.37
2022-09-02T13:49:02.159Z,99057.97
2022-09-02T13:51:29.319Z,99052.75
2022-09-02T13:54:22.088Z,99058.81
2022-09-02T13:56:44.450Z,99053.81
2022-09-02T13:59:11.586Z,99058.88
2022-09-02T14:01:40.123Z,99053.56
2022-09-02T14:04:10.284Z,99058.03
2022-09-02T14:06:38.840Z,99053.97
2022-09-02T14:09:06.852Z,99051.81
2022-09-02T14:11:43.376Z,99060.22
2022-09-02T14:14:13.911Z,99055.56
2022-09-02T14:16:42.341Z,99052.34
2022-09-02T14:19:10.379Z,99058.38
2022-09-02T14:21:38.387Z,99062.00
2022-09-02T14:24:05.808Z,99057.44
2022-09-02T14:26:41.893Z,99059.91
2022-09-02T14:29:11.721Z,99058.56
2022-09-02T14:31:38.927Z,99063.28
2022-09-02T14:34:26.048Z,99059.34
2022-09-02T14:36:53.452Z,99065.13
2022-09-02T14:39:20.779Z,99056.53
2022-09-02T14:41:51.575Z,99055.97
2022-09-02T14:44:34.117Z,99051.94
2022-09-02T14:47:01.969Z,99061.06
2022-09-02T14:49:29.336Z,99057.38
2022-09-02T14:52:00.675Z,99067.56
2022-09-02T14:54:34.182Z,99072.72
2022-09-02T14:57:01.569Z,99066.41
2022-09-02T14:59:28.705Z,99074.00
2022-09-02T15:01:57.236Z,99071.50
2022-09-02T15:04:24.636Z,99072.00
2022-09-02T15:06:52.094Z,99076.78
2022-09-02T15:09:19.724Z,99067.03
2022-09-02T15:11:49.102Z,99071.37
2022-09-02T15:14:16.307Z,99074.47
2022-09-02T15:16:43.483Z,99071.31
2022-09-02T15:19:12.191Z,99072.13
2022-09-02T15:21:40.420Z,99074.06
2022-09-02T15:24:07.617Z,99063.56
2022-09-02T15:26:35.077Z,99067.09
2022-09-02T15:29:03.443Z,99069.06
2022-09-02T15:31:31.141Z,99073.75
2022-09-02T15:33:58.978Z,99063.19
2022-09-02T15:36:27.721Z,99073.25
2022-09-02T15:38:55.101Z,99082.97
2022-09-02T15:41:23.417Z,99082.94
2022-09-02T15:43:54.441Z,99092.47
2022-09-02T15:46:22.875Z,99087.34
2022-09-02T15:48:50.567Z,99092.72
2022-09-02T15:51:19.633Z,99090.25
2022-09-02T15:53:51.652Z,99096.50
2022-09-02T15:56:19.952Z,99102.22
2022-09-02T15:58:47.259Z,99103.13
2022-09-02T16:01:14.663Z,99118.78
2022-09-02T16:03:42.155Z,99110.53
2022-09-02T16:06:11.490Z,99114.88
2022-09-02T16:08:38.625Z,99111.19
2022-09-02T16:11:07.271Z,99116.19
2022-09-02T16:13:35.434Z,99116.91
2022-09-02T16:16:03.632Z,99121.12
2022-09-02T16:18:31.203Z,99120.66
2022-09-02T16:20:58.376Z,99128.25
2022-09-02T16:23:25.625Z,99126.66
2022-09-02T16:26:09.243Z,99125.97
2022-09-02T16:28:37.220Z,99124.87
2022-09-02T16:31:05.130Z,99116.28
2022-09-02T16:33:34.012Z,99124.75
2022-09-02T16:36:01.177Z,99128.47
2022-09-02T16:38:28.630Z,99130.03
2022-09-02T16:40:56.627Z,99135.22
2022-09-02T16:43:24.705Z,99137.13
2022-09-02T16:45:52.974Z,99134.44
2022-09-02T16:48:25.202Z,99142.72
2022-09-02T16:50:53.222Z,99133.50
2022-09-02T16:53:20.405Z,99138.53
2022-09-02T16:55:48.721Z,99144.22
2022-09-02T16:58:16.180Z,99146.75
2022-09-02T17:00:43.341Z,99148.63
2022-09-02T17:03:10.866Z,99152.19
2022-09-02T17:05:38.926Z,99157.09
2022-09-02T17:08:06.517Z,99155.47
2022-09-02T17:10:34.414Z,99158.53
2022-09-02T17:13:01.898Z,99153.47
2022-09-02T17:15:29.355Z,99156.25
2022-09-02T17:17:56.685Z,99149.50
2022-09-02T17:20:24.391Z,99151.38
2022-09-02T17:22:51.737Z,99153.38
2022-09-02T17:25:18.963Z,99157.69
2022-09-02T17:27:49.637Z,99156.91
2022-09-02T17:30:16.876Z,99151.47
2022-09-02T17:32:44.022Z,99154.94
2022-09-02T17:35:11.779Z,99158.50
2022-09-02T17:37:39.138Z,99155.31
2022-09-02T17:40:07.274Z,99156.13
2022-09-02T17:42:34.825Z,99157.00
2022-09-02T17:45:01.998Z,99157.03
2022-09-02T17:47:31.731Z,99153.88
2022-09-02T17:49:59.295Z,99157.16
2022-09-02T17:52:26.875Z,99151.56
2022-09-02T17:54:54.473Z,99162.03
2022-09-02T17:57:51.356Z,99162.59
2022-09-02T18:00:22.393Z,99166.94
2022-09-02T18:03:05.223Z,99159.66
2022-09-02T18:05:42.747Z,99166.94
2022-09-02T18:08:24.032Z,99178.00
2022-09-02T18:11:04.471Z,99168.22
2022-09-02T18:13:41.027Z,99166.41
2022-09-02T18:16:15.168Z,99163.91
2022-09-02T18:18:56.664Z,99168.94
2022-09-02T18:21:35.834Z,99168.31
2022-09-02T18:24:09.047Z,99169.72
2022-09-02T18:26:45.819Z,99171.81
2022-09-02T18:29:19.687Z,99182.72
2022-09-02T18:31:53.348Z,99183.84
2022-09-02T18:34:36.162Z,99183.19
2022-09-02T18:37:09.728Z,99184.50
2022-09-02T18:39:47.249Z,99188.97
2022-09-02T18:42:15.110Z,99179.84
2022-09-02T18:44:42.564Z,99187.13
2022-09-02T18:47:10.621Z,99179.91
2022-09-02T18:49:38.864Z,99184.59
2022-09-02T18:52:07.853Z,99184.34
2022-09-02T18:54:46.620Z,99185.84
2022-09-02T18:57:14.873Z,99188.81
2022-09-02T18:59:43.438Z,99187.41
2022-09-02T19:02:33.077Z,99182.56
2022-09-02T19:05:01.617Z,99189.22
2022-09-02T19:07:48.081Z,99191.22
2022-09-02T19:10:15.647Z,99194.00
2022-09-02T19:12:43.886Z,99201.56
2022-09-02T19:15:13.342Z,99207.25
2022-09-02T19:17:41.295Z,99203.69
2022-09-02T19:20:10.246Z,99201.50
2022-09-02T19:22:39.010Z,99204.16
2022-09-02T19:25:07.925Z,99199.34
2022-09-02T19:27:36.113Z,99204.94
2022-09-02T19:30:07.715Z,99202.13
2022-09-02T19:32:36.332Z,99205.53
2022-09-02T19:35:06.638Z,99207.44
2022-09-02T19:37:33.841Z,99213.59
2022-09-02T19:40:04.185Z,99206.34
2022-09-02T19:42:32.207Z,99203.91
2022-09-02T19:45:00.135Z,99208.87
2022-09-02T19:50:14.980Z,99203.78
2022-09-02T19:52:44.117Z,99205.19
2022-09-02T19:55:15.146Z,99208.34
2022-09-02T19:57:42.888Z,99204.06
2022-09-02T20:00:11.118Z,99203.09
2022-09-02T20:02:41.245Z,99202.69
2022-09-02T20:05:09.112Z,99208.03
2022-09-02T20:07:36.402Z,99203.50
2022-09-02T20:10:04.093Z,99217.63
2022-09-02T20:12:32.742Z,99207.97
2022-09-02T20:15:04.431Z,99205.47
2022-09-02T20:17:32.088Z,99201.63
2022-09-02T20:20:02.255Z,99198.41
2022-09-02T20:22:32.702Z,99203.31
2022-09-02T20:25:00.171Z,99213.56
2022-09-02T20:27:47.293Z,99209.84
2022-09-02T20:30:15.644Z,99221.25
2022-09-02T20:32:51.918Z,99224.06
2022-09-02T20:35:38.403Z,99214.66
2022-09-02T20:38:15.389Z,99217.44
2022-09-02T20:40:49.052Z,99218.59
2022-09-02T20:43:20.743Z,99206.38
2022-09-02T20:45:55.535Z,99212.41
2022-09-02T20:48:27.652Z,99211.56
2022-09-02T20:51:14.329Z,99212.03
2022-09-02T20:54:01.348Z,99211.22
2022-09-02T20:56:37.726Z,99221.53
2022-09-02T20:59:11.143Z,99217.44
2022-09-02T21:01:41.990Z,99216.19
2022-09-02T21:04:12.280Z,99218.91
2022-09-02T21:06:44.329Z,99216.28
2022-09-02T21:09:14.508Z,99215.47
2022-09-02T21:11:47.665Z,99213.44
2022-09-02T21:14:16.440Z,99213.44
2022-09-02T21:16:55.522Z,99217.59
2022-09-02T21:19:41.538Z,99206.31
2022-09-02T21:22:29.231Z,99218.56
2022-09-02T21:25:04.218Z,99220.50
2022-09-02T21:27:45.269Z,99218.91
2022-09-02T21:30:13.615Z,99226.28
2022-09-02T21:32:53.861Z,99219.19
2022-09-02T21:35:21.143Z,99223.84
2022-09-02T21:37:49.419Z,99222.56
2022-09-02T21:40:17.423Z,99225.75
2022-09-02T21:43:03.169Z,99220.97
2022-09-02T21:45:33.642Z,99224.84
2022-09-02T21:48:20.748Z,99217.56
2022-09-02T21:50:58.672Z,99215.13
2022-09-02T21:53:32.993Z,99220.47
2022-09-02T21:56:06.711Z,99222.81
2022-09-02T21:58:39.759Z,99234.28
2022-09-02T22:01:25.858Z,99224.78
2022-09-02T22:04:02.145Z,99226.25
2022-09-02T22:06:31.609Z,99222.38
2022-09-02T22:09:04.111Z,99224.78
2022-09-02T22:11:33.111Z,99222.53
2022-09-02T22:14:02.554Z,99212.47
2022-09-02T22:16:32.608Z,99218.81
2022-09-02T22:19:01.479Z,99224.47
2022-09-02T22:21:48.614Z,99228.28
2022-09-02T22:24:16.546Z,99217.47
2022-09-02T22:26:54.587Z,99217.78
2022-09-02T22:29:28.797Z,99223.28
2022-09-02T22:31:57.157Z,99215.81
2022-09-02T22:34:25.013Z,99224.03
2022-09-02T22:36:52.179Z,99216.53
2022-09-02T22:39:22.155Z,99212.28
2022-09-02T22:41:51.773Z,99214.81
2022-09-02T22:44:23.919Z,99215.22
2022-09-02T22:47:10.117Z,99211.16
2022-09-02T22:50:00.584Z,99206.72
2022-09-02T22:52:54.987Z,99214.94
2022-09-02T22:55:31.832Z,99208.37
2022-09-02T22:58:30.824Z,99210.78
2022-09-02T23:00:57.956Z,99212.50
2022-09-02T23:03:29.834Z,99192.25
2022-09-02T23:06:01.170Z,99202.53
2022-09-02T23:08:28.730Z,99197.38
2022-09-02T23:11:02.072Z,99193.47
2022-09-02T23:13:36.384Z,99195.56
2022-09-02T23:16:11.127Z,99186.22
2022-09-02T23:18:49.307Z,99188.56
2022-09-02T23:21:19.492Z,99186.22
2022-09-02T23:23:53.292Z,99183.94
2022-09-02T23:26:31.799Z,99186.97
2022-09-02T23:29:18.131Z,99181.91
2022-09-02T23:31:54.105Z,99181.59
2022-09-02T23:34:40.406Z,99181.69
2022-09-02T23:37:34.461Z,99188.19
2022-09-02T23:40:08.887Z,99186.63
2022-09-02T23:42:36.030Z,99180.84
2022-09-02T23:45:22.827Z,99185.00
2022-09-02T23:48:00.155Z,99179.59
2022-09-02T23:50:34.540Z,99175.28
2022-09-02T23:53:09.110Z,99179.81
2022-09-02T23:55:45.426Z,99184.66
2022-09-02T23:58:31.917Z,99177.97
